createdAt,value
2022-11-29T00:01:01.556Z,99558.56
2022-11-29T00:03:28.994Z,99558.34
2022-11-29T00:05:56.155Z,99557.56
2022-11-29T00:08:23.996Z,99554.41
2022-11-29T00:10:50.937Z,99558.03
2022-11-29T00:13:18.388Z,99553.63
2022-11-29T00:15:45.113Z,99551.28
2022-11-29T00:18:12.074Z,99559.06
2022-11-29T00:20:39.656Z,99548.91
2022-11-29T00:23:06.499Z,99550.97
2022-11-29T00:25:33.398Z,99555.34
2022-11-29T00:28:00.209Z,99548.59
2022-11-29T00:30:28.137Z,99551.97
2022-11-29T00:32:55.090Z,99550.41
2022-11-29T00:35:21.781Z,99542.34
2022-11-29T00:37:48.609Z,99553.25
2022-11-29T00:40:15.348Z,99553.25
2022-11-29T00:42:42.129Z,99550.66
2022-11-29T00:45:09.361Z,99551.44
2022-11-29T00:47:36.189Z,99544.66
2022-11-29T00:50:03.705Z,99548.06
2022-11-29T00:52:30.531Z,99547.50
2022-11-29T00:54:57.303Z,99545.38
2022-11-29T00:57:24.137Z,99546.94
2022-11-29T00:59:50.873Z,99546.16
2022-11-29T01:02:17.642Z,99547.19
2022-11-29T01:04:44.800Z,99555.28
2022-11-29T01:07:11.853Z,99555.22
2022-11-29T01:09:38.622Z,99554.97
2022-11-29T01:12:05.495Z,99554.41
2022-11-29T01:14:32.517Z,99557.56
2022-11-29T01:16:59.366Z,99556.78
2022-11-29T01:19:26.168Z,99550.81
2022-11-29T01:21:52.951Z,99551.59
2022-11-29T01:24:19.782Z,99547.19
2022-11-29T01:26:46.591Z,99554.97
2022-11-29T01:29:13.827Z,99547.44
2022-11-29T01:31:40.602Z,99549.00
2022-11-29T01:34:07.740Z,99554.19
2022-11-29T01:36:35.373Z,99560.16
2022-11-29T01:39:05.241Z,99556.00
2022-11-29T01:41:35.003Z,99558.59
2022-11-29T01:44:26.882Z,99554.66
2022-11-29T01:46:54.844Z,99552.06
2022-11-29T01:49:28.181Z,99555.69
2022-11-29T01:52:18.797Z,99548.69
2022-11-29T01:54:50.304Z,99552.53
2022-11-29T01:57:18.600Z,99554.59
2022-11-29T01:59:52.556Z,99558.19
2022-11-29T02:02:29.424Z,99552.47
2022-11-29T02:04:59.035Z,99547.50
2022-11-29T02:07:25.955Z,99554.50
2022-11-29T02:09:53.018Z,99552.16
2022-11-29T02:12:38.164Z,99547.75
2022-11-29T02:15:36.067Z,99551.13
2022-11-29T02:18:08.290Z,99549.78
2022-11-29T02:20:59.560Z,99549.78
2022-11-29T02:24:02.114Z,99546.97
2022-11-29T02:26:40.677Z,99548.75
2022-11-29T02:29:30.049Z,99553.41
2022-11-29T02:32:34.359Z,99552.63
2022-11-29T02:35:16.040Z,99555.44
2022-11-29T02:38:11.270Z,99550.50
2022-11-29T02:41:04.509Z,99555.13
2022-11-29T02:43:58.940Z,99556.16
2022-11-29T02:46:55.319Z,99556.41
2022-11-29T02:49:45.550Z,99561.59
2022-11-29T02:52:25.220Z,99558.19
2022-11-29T02:55:15.381Z,99559.78
2022-11-29T02:58:02.406Z,99563.63
2022-11-29T03:00:35.992Z,99563.88
2022-11-29T03:03:08.696Z,99571.66
2022-11-29T03:05:53.541Z,99573.44
2022-11-29T03:08:35.740Z,99577.63
2022-11-29T03:11:26.664Z,99573.69
2022-11-29T03:14:25.805Z,99570.31
2022-11-29T03:17:20.240Z,99577.06
2022-11-29T03:20:01.108Z,99578.09
2022-11-29T03:22:30.662Z,99572.59
2022-11-29T03:25:00.359Z,99574.16
2022-11-29T03:27:31.304Z,99580.13
2022-11-29T03:30:02.436Z,99582.72
2022-11-29T03:33:02.795Z,99585.31
2022-11-29T03:35:58.452Z,99587.13
2022-11-29T03:38:45.000Z,99599.34
2022-11-29T03:41:28.798Z,99590.75
2022-11-29T03:44:03.450Z,99599.91
2022-11-29T03:46:46.589Z,99595.72
2022-11-29T03:49:38.348Z,99590.53
2022-11-29T03:52:32.133Z,99592.91
2022-11-29T03:55:32.337Z,99592.91
2022-11-29T03:58:20.568Z,99596.50
2022-11-29T04:00:50.290Z,99591.31
2022-11-29T04:03:25.951Z,99594.94
2022-11-29T04:06:13.843Z,99590.53
2022-11-29T04:09:27.311Z,99589.53
2022-11-29T04:12:12.071Z,99592.13
2022-11-29T04:14:53.804Z,99599.09
2022-11-29T04:17:49.062Z,99603.03
2022-11-29T04:20:55.665Z,99603.03
2022-11-29T04:23:47.195Z,99600.44
2022-11-29T04:26:22.623Z,99600.69
2022-11-29T04:28:55.132Z,99599.66
2022-11-29T04:31:52.758Z,99598.63
2022-11-29T04:34:37.648Z,99606.88
2022-11-29T04:37:31.887Z,99607.69
2022-11-29T04:40:20.387Z,99611.84
2022-11-29T04:43:24.566Z,99610.28
2022-11-29T04:46:03.495Z,99615.47
2022-11-29T04:49:04.113Z,99608.69
2022-11-29T04:51:30.839Z,99616.25
2022-11-29T04:53:57.551Z,99617.59
2022-11-29T04:56:32.987Z,99617.25
2022-11-29T04:59:19.547Z,99624.84
2022-11-29T05:02:05.789Z,99622.44
2022-11-29T05:05:19.929Z,99623.47
2022-11-29T05:07:59.724Z,99628.13
2022-11-29T05:10:33.883Z,99633.88
2022-11-29T05:13:32.743Z,99638.84
2022-11-29T05:16:14.755Z,99646.06
2022-11-29T05:18:56.787Z,99641.66
2022-11-29T05:21:47.903Z,99642.44
2022-11-29T05:24:20.624Z,99654.63
2022-11-29T05:27:21.476Z,99652.81
2022-11-29T05:29:56.862Z,99657.22
2022-11-29T05:32:57.984Z,99653.84
2022-11-29T05:35:51.186Z,99659.03
2022-11-29T05:38:17.977Z,99660.59
2022-11-29T05:41:00.225Z,99661.63
2022-11-29T05:44:04.168Z,99661.06
2022-11-29T05:46:43.089Z,99661.31
2022-11-29T05:49:38.533Z,99667.06
2022-11-29T05:52:24.919Z,99657.69
2022-11-29T05:55:17.368Z,99662.88
2022-11-29T05:57:55.476Z,99659.75
2022-11-29T06:00:22.828Z,99666.75
2022-11-29T06:03:03.305Z,99666.50
2022-11-29T06:05:59.280Z,99667.75
2022-11-29T06:08:40.153Z,99666.75
2022-11-29T06:11:17.538Z,99672.16
2022-11-29T06:14:02.400Z,99677.34
2022-11-29T06:16:50.759Z,99668.53
2022-11-29T06:19:48.512Z,99677.34
2022-11-29T06:22:42.573Z,99677.81
2022-11-29T06:25:12.292Z,99686.16
2022-11-29T06:28:13.875Z,99682.78
2022-11-29T06:31:04.527Z,99691.34
2022-11-29T06:34:02.877Z,99686.38
2022-11-29T06:36:40.123Z,99684.34
2022-11-29T06:39:09.193Z,99687.19
2022-11-29T06:41:36.590Z,99689.53
2022-11-29T06:44:04.202Z,99704.34
2022-11-29T06:46:44.165Z,99697.56
2022-11-29T06:49:32.457Z,99699.69
2022-11-29T06:52:39.475Z,99702.28
2022-11-29T06:55:24.037Z,99701.75
2022-11-29T06:58:28.347Z,99706.94
2022-11-29T07:01:11.136Z,99703.31
2022-11-29T07:04:20.644Z,99700.72
2022-11-29T07:06:47.681Z,99701.50
2022-11-29T07:09:17.758Z,99703.88
2022-11-29T07:11:46.268Z,99705.44
2022-11-29T07:14:13.611Z,99701.81
2022-11-29T07:16:46.275Z,99706.00
2022-11-29T07:19:24.971Z,99708.03
2022-11-29T07:22:14.990Z,99711.41
2022-11-29T07:24:50.783Z,99706.00
2022-11-29T07:27:35.895Z,99706.34
2022-11-29T07:30:11.772Z,99714.13
2022-11-29T07:33:14.834Z,99709.47
2022-11-29T07:35:53.880Z,99718.63
2022-11-29T07:39:08.434Z,99720.19
2022-11-29T07:42:00.587Z,99725.16
2022-11-29T07:44:44.741Z,99725.72
2022-11-29T07:47:12.177Z,99726.50
2022-11-29T07:49:38.976Z,99726.50
2022-11-29T07:52:05.784Z,99720.84
2022-11-29T07:54:32.664Z,99735.97
2022-11-29T07:56:59.438Z,99733.13
2022-11-29T07:59:26.174Z,99738.09
2022-11-29T08:01:53.051Z,99740.69
2022-11-29T08:04:19.896Z,99734.25
2022-11-29T08:06:46.658Z,99746.22
2022-11-29T08:09:13.478Z,99747.31
2022-11-29T08:11:40.402Z,99751.47
2022-11-29T08:14:07.215Z,99747.66
2022-11-29T08:16:34.480Z,99748.22
2022-11-29T08:19:01.434Z,99753.41
2022-11-29T08:21:28.193Z,99754.19
2022-11-29T08:23:55.003Z,99759.72
2022-11-29T08:26:24.451Z,99759.25
2022-11-29T08:28:56.253Z,99765.22
2022-11-29T08:31:23.234Z,99766.34
2022-11-29T08:33:50.031Z,99760.34
2022-11-29T08:36:19.626Z,99770.50
2022-11-29T08:38:47.637Z,99768.47
2022-11-29T08:41:16.184Z,99770.03
2022-11-29T08:43:43.856Z,99766.41
2022-11-29T08:46:16.690Z,99771.41
2022-11-29T08:48:45.318Z,99762.34
2022-11-29T08:51:12.141Z,99767.31
2022-11-29T08:53:38.870Z,99772.50
2022-11-29T08:56:31.768Z,99775.66
2022-11-29T08:58:52.588Z,99778.03
2022-11-29T09:01:20.068Z,99780.38
2022-11-29T09:03:47.170Z,99783.78
2022-11-29T09:06:15.531Z,99780.16
2022-11-29T09:08:43.240Z,99781.72
2022-11-29T09:11:21.074Z,99783.53
2022-11-29T09:13:50.533Z,99785.69
2022-11-29T09:16:20.915Z,99784.09
2022-11-29T09:18:51.680Z,99785.34
2022-11-29T09:21:19.603Z,99783.28
2022-11-29T09:23:46.757Z,99787.50
2022-11-29T09:26:18.698Z,99782.50
2022-11-29T09:28:48.876Z,99782.28
2022-11-29T09:31:16.685Z,99784.66
2022-11-29T09:33:43.522Z,99784.44
2022-11-29T09:36:11.517Z,99785.69
2022-11-29T09:38:39.026Z,99796.63
2022-11-29T09:41:21.097Z,99787.81
2022-11-29T09:44:17.808Z,99792.22
2022-11-29T09:46:58.819Z,99787.56
2022-11-29T09:50:03.317Z,99789.13
2022-11-29T09:53:17.722Z,99788.66
2022-11-29T09:56:09.147Z,99789.00
2022-11-29T09:58:57.594Z,99788.53
2022-11-29T10:01:30.458Z,99784.09
2022-11-29T10:04:02.599Z,99779.47
2022-11-29T10:06:35.383Z,99780.00
2022-11-29T10:09:14.591Z,99779.78
2022-11-29T10:11:53.440Z,99775.13
2022-11-29T10:14:27.167Z,99772.06
2022-11-29T10:17:18.246Z,99771.84
2022-11-29T10:19:50.062Z,99774.97
2022-11-29T10:22:31.295Z,99772.69
2022-11-29T10:25:01.579Z,99764.44
2022-11-29T10:27:29.628Z,99768.38
2022-11-29T10:29:58.883Z,99774.13
2022-11-29T10:32:29.159Z,99774.94
2022-11-29T10:34:55.945Z,99765.84
2022-11-29T10:37:24.329Z,99771.03
2022-11-29T10:39:59.310Z,99765.63
2022-11-29T10:42:29.018Z,99766.16
2022-11-29T10:44:56.389Z,99767.25
2022-11-29T10:47:23.215Z,99767.50
2022-11-29T10:49:50.080Z,99760.25
2022-11-29T10:52:20.489Z,99756.06
2022-11-29T10:54:49.795Z,99756.63
2022-11-29T10:57:22.382Z,99758.44
2022-11-29T11:00:02.924Z,99744.88
2022-11-29T11:02:30.781Z,99755.84
2022-11-29T11:04:58.944Z,99753.00
2022-11-29T11:07:36.346Z,99750.38
2022-11-29T11:10:06.307Z,99758.75
2022-11-29T11:12:34.761Z,99750.47
2022-11-29T11:15:24.960Z,99753.88
2022-11-29T11:18:07.469Z,99751.25
2022-11-29T11:20:41.756Z,99754.66
2022-11-29T11:23:30.843Z,99745.03
2022-11-29T11:26:09.175Z,99752.34
2022-11-29T11:28:42.151Z,99757.31
2022-11-29T11:31:11.537Z,99757.31
2022-11-29T11:33:43.153Z,99749.28
2022-11-29T11:36:13.130Z,99756.06
2022-11-29T11:38:54.425Z,99754.22
2022-11-29T11:41:31.876Z,99757.41
2022-11-29T11:44:02.514Z,99749.34
2022-11-29T11:46:50.105Z,99757.72
2022-11-29T11:49:31.303Z,99761.66
2022-11-29T11:52:00.636Z,99758.81
2022-11-29T11:54:29.375Z,99757.53
2022-11-29T11:56:56.576Z,99756.50
2022-11-29T11:59:26.225Z,99754.69
2022-11-29T12:01:53.369Z,99761.22
2022-11-29T12:04:35.715Z,99755.00
2022-11-29T12:07:09.288Z,99745.69
2022-11-29T12:09:42.378Z,99747.03
2022-11-29T12:12:26.083Z,99750.19
2022-11-29T12:14:56.579Z,99747.31
2022-11-29T12:17:38.320Z,99747.06
2022-11-29T12:20:44.715Z,99742.97
2022-11-29T12:23:11.454Z,99749.50
2022-11-29T12:25:51.942Z,99750.84
2022-11-29T12:28:21.095Z,99747.19
2022-11-29T12:31:11.383Z,99747.97
2022-11-29T12:34:06.005Z,99742.78
2022-11-29T12:37:06.775Z,99749.56
2022-11-29T12:39:42.306Z,99745.94
2022-11-29T12:42:27.735Z,99747.50
2022-11-29T12:45:00.618Z,99750.88
2022-11-29T12:47:47.483Z,99744.41
2022-11-29T12:50:23.235Z,99748.38
2022-11-29T12:53:24.022Z,99753.56
2022-11-29T12:56:25.594Z,99746.53
2022-11-29T12:59:04.265Z,99760.66
2022-11-29T13:01:30.991Z,99756.47
2022-11-29T13:04:11.741Z,99757.25
2022-11-29T13:07:05.611Z,99751.81
2022-11-29T13:09:44.864Z,99757.56
2022-11-29T13:12:17.364Z,99763.56
2022-11-29T13:14:50.289Z,99757.31
2022-11-29T13:18:10.129Z,99762.00
2022-11-29T13:20:45.592Z,99764.81
2022-11-29T13:23:15.171Z,99763.03
2022-11-29T13:25:45.520Z,99772.63
2022-11-29T13:28:25.643Z,99772.63
2022-11-29T13:30:55.256Z,99767.44
2022-11-29T13:33:30.916Z,99774.72
2022-11-29T13:36:34.194Z,99773.44
2022-11-29T13:39:34.724Z,99782.03
2022-11-29T13:42:24.783Z,99776.28
2022-11-29T13:45:04.438Z,99783.06
2022-11-29T13:47:31.428Z,99777.84
2022-11-29T13:50:00.400Z,99783.06
2022-11-29T13:52:47.305Z,99780.44
2022-11-29T13:55:13.982Z,99785.66
2022-11-29T13:58:28.474Z,99789.06
2022-11-29T14:01:01.560Z,99796.88
2022-11-29T14:03:36.013Z,99795.06
2022-11-29T14:06:10.773Z,99789.84
2022-11-29T14:09:17.765Z,99788.75
2022-11-29T14:11:42.410Z,99799.72
2022-11-29T14:14:17.173Z,99792.94
2022-11-29T14:16:44.222Z,99793.97
2022-11-29T14:19:10.943Z,99795.75
2022-11-29T14:21:56.208Z,99797.59
2022-11-29T14:24:54.965Z,99799.41
2022-11-29T14:27:21.701Z,99800.66
2022-11-29T14:29:48.418Z,99801.47
2022-11-29T14:32:27.147Z,99805.88
2022-11-29T14:35:02.920Z,99805.34
2022-11-29T14:37:37.324Z,99800.91
2022-11-29T14:40:18.117Z,99808.16
2022-11-29T14:42:48.517Z,99805.03
2022-11-29T14:45:24.683Z,99806.59
2022-11-29T14:47:53.339Z,99817.50
2022-11-29T14:50:34.190Z,99819.31
2022-11-29T14:53:02.151Z,99809.94
2022-11-29T14:55:32.892Z,99810.97
2022-11-29T14:58:02.391Z,99820.34
2022-11-29T15:00:42.840Z,99814.34
2022-11-29T15:03:18.323Z,99819.78
2022-11-29T15:06:07.018Z,99812.22
2022-11-29T15:08:52.830Z,99826.59
2022-11-29T15:11:35.581Z,99821.59
2022-11-29T15:14:19.406Z,99825.25
2022-11-29T15:17:04.056Z,99829.66
2022-11-29T15:20:05.738Z,99829.66
2022-11-29T15:22:51.798Z,99830.69
2022-11-29T15:25:22.988Z,99832.28
2022-11-29T15:27:54.791Z,99833.28
2022-11-29T15:30:35.559Z,99827.28
2022-11-29T15:33:06.367Z,99824.94
2022-11-29T15:35:35.186Z,99831.66
2022-11-29T15:38:02.479Z,99825.09
2022-11-29T15:40:31.626Z,99832.13
2022-11-29T15:43:21.883Z,99827.13
2022-11-29T15:45:53.775Z,99836.28
2022-11-29T15:48:26.413Z,99831.81
2022-11-29T15:51:17.584Z,99832.84
2022-11-29T15:54:00.405Z,99842.69
2022-11-29T15:56:50.855Z,99828.91
2022-11-29T15:59:39.212Z,99841.59
2022-11-29T16:02:28.036Z,99831.19
2022-11-29T16:05:03.104Z,99835.84
2022-11-29T16:07:31.170Z,99840.97
2022-11-29T16:10:03.818Z,99837.59
2022-11-29T16:12:53.358Z,99840.41
2022-11-29T16:15:33.153Z,99837.28
2022-11-29T16:18:12.637Z,99849.41
2022-11-29T16:20:41.167Z,99843.88
2022-11-29T16:23:08.245Z,99846.72
2022-11-29T16:25:53.829Z,99839.63
2022-11-29T16:28:21.288Z,99839.28
2022-11-29T16:30:48.809Z,99843.50
2022-11-29T16:33:23.661Z,99836.16
2022-11-29T16:35:51.598Z,99846.56
2022-11-29T16:38:21.808Z,99847.56
2022-11-29T16:41:20.899Z,99849.06
2022-11-29T16:43:52.164Z,99846.72
2022-11-29T16:46:21.919Z,99847.50
2022-11-29T16:48:57.016Z,99848.75
2022-11-29T16:51:29.553Z,99852.63
2022-11-29T16:54:22.946Z,99851.03
2022-11-29T16:56:55.574Z,99856.47
2022-11-29T16:59:28.081Z,99854.91
2022-11-29T17:01:57.153Z,99861.91
2022-11-29T17:04:25.377Z,99863.94
2022-11-29T17:06:54.349Z,99864.41
2022-11-29T17:09:27.866Z,99862.59
2022-11-29T17:11:56.531Z,99870.66
2022-11-29T17:14:23.492Z,99869.28
2022-11-29T17:16:50.909Z,99872.16
2022-11-29T17:19:22.195Z,99880.72
2022-11-29T17:21:50.419Z,99880.41
2022-11-29T17:24:20.202Z,99881.66
2022-11-29T17:26:47.429Z,99884.25
2022-11-29T17:29:16.580Z,99885.50
2022-11-29T17:31:45.186Z,99888.09
2022-11-29T17:34:13.571Z,99883.94
2022-11-29T17:36:40.354Z,99886.53
2022-11-29T17:39:08.047Z,99884.63
2022-11-29T17:41:36.107Z,99890.81
2022-11-29T17:44:04.622Z,99900.69
2022-11-29T17:46:34.848Z,99896.66
2022-11-29T17:49:04.783Z,99904.13
2022-11-29T17:54:21.528Z,99899.38
2022-11-29T17:56:48.758Z,99902.34
2022-11-29T17:59:16.515Z,99906.59
2022-11-29T18:01:43.866Z,99905.72
2022-11-29T18:04:12.159Z,99909.00
2022-11-29T18:06:42.388Z,99909.66
2022-11-29T18:09:12.371Z,99912.94
2022-11-29T18:11:47.723Z,99912.63
2022-11-29T18:14:25.928Z,99910.25
2022-11-29T18:16:53.361Z,99918.06
2022-11-29T18:19:22.698Z,99914.47
2022-11-29T18:21:51.654Z,99915.69
2022-11-29T18:24:20.242Z,99910.25
2022-11-29T18:26:47.932Z,99914.78
2022-11-29T18:29:15.660Z,99917.63
2022-11-29T18:31:45.584Z,99909.94
2022-11-29T18:34:14.627Z,99918.31
2022-11-29T18:36:45.252Z,99917.50
2022-11-29T18:39:18.371Z,99918.31
2022-11-29T18:41:51.286Z,99917.66
2022-11-29T18:44:20.866Z,99921.94
2022-11-29T18:46:48.621Z,99923.75
2022-11-29T18:49:18.274Z,99922.81
2022-11-29T18:51:47.246Z,99923.50
2022-11-29T18:54:16.487Z,99920.56
2022-11-29T18:56:45.777Z,99929.38
2022-11-29T18:59:15.950Z,99936.03
2022-11-29T19:01:45.491Z,99937.06
2022-11-29T19:04:17.303Z,99941.00
2022-11-29T19:06:46.619Z,99940.53
2022-11-29T19:09:17.912Z,99935.59
2022-11-29T19:11:45.771Z,99935.81
2022-11-29T19:14:13.718Z,99936.16
2022-11-29T19:16:47.382Z,99932.53
2022-11-29T19:19:16.570Z,99930.97
2022-11-29T19:21:45.378Z,99936.94
2022-11-29T19:24:15.288Z,99933.00
2022-11-29T19:26:46.194Z,99937.94
2022-11-29T19:29:14.975Z,99930.16
2022-11-29T19:31:47.181Z,99932.19
2022-11-29T19:34:15.370Z,99936.16
2022-11-29T19:36:44.557Z,99938.97
2022-11-29T19:39:17.311Z,99940.19
2022-11-29T19:41:47.820Z,99943.81
2022-11-29T19:44:15.985Z,99953.53
2022-11-29T19:46:46.324Z,99948.78
2022-11-29T19:49:14.577Z,99946.66
2022-11-29T19:51:45.299Z,99952.84
2022-11-29T19:54:14.468Z,99952.50
2022-11-29T19:56:42.721Z,99952.97
2022-11-29T19:59:16.750Z,99949.13
2022-11-29T20:01:45.512Z,99965.84
2022-11-29T20:04:14.331Z,99955.25
2022-11-29T20:06:42.629Z,99956.13
2022-11-29T20:09:13.914Z,99959.75
2022-11-29T20:11:43.339Z,99949.72
2022-11-29T20:14:14.022Z,99957.03
2022-11-29T20:16:42.267Z,99958.19
2022-11-29T20:19:13.949Z,99957.94
2022-11-29T20:21:50.582Z,99961.75
2022-11-29T20:24:19.277Z,99952.75
2022-11-29T20:26:49.965Z,99958.38
2022-11-29T20:29:21.820Z,99960.28
2022-11-29T20:31:51.345Z,99957.25
2022-11-29T20:34:21.613Z,99953.88
2022-11-29T20:37:15.725Z,99962.09
2022-11-29T20:39:55.883Z,99963.91
2022-11-29T20:42:48.874Z,99964.50
2022-11-29T20:45:18.272Z,99969.69
2022-11-29T20:47:57.209Z,99965.50
2022-11-29T20:50:31.119Z,99966.06
2022-11-29T20:53:08.584Z,99965.03
2022-11-29T20:55:36.463Z,99964.25
2022-11-29T20:58:10.320Z,99959.84
2022-11-29T21:00:39.007Z,99961.91
2022-11-29T21:03:06.569Z,99958.63
2022-11-29T21:05:34.366Z,99965.63
2022-11-29T21:08:07.073Z,99969.25
2022-11-29T21:10:36.008Z,99969.25
2022-11-29T21:13:04.719Z,99966.84
2022-11-29T21:15:32.550Z,99971.84
2022-11-29T21:18:01.011Z,99975.22
2022-11-29T21:20:28.709Z,99970.47
2022-11-29T21:23:34.804Z,99981.66
2022-11-29T21:26:07.646Z,99968.66
2022-11-29T21:28:38.232Z,99975.09
2022-11-29T21:31:05.989Z,99978.25
2022-11-29T21:33:33.424Z,99978.72
2022-11-29T21:36:00.428Z,99973.97
2022-11-29T21:38:27.696Z,99967.97
2022-11-29T21:40:54.456Z,99967.41
2022-11-29T21:43:28.735Z,99973.16
2022-11-29T21:46:08.617Z,99964.81
2022-11-29T21:48:35.464Z,99969.22
2022-11-29T21:51:06.761Z,99978.94
2022-11-29T21:53:35.710Z,99968.09
2022-11-29T21:56:05.701Z,99966.06
2022-11-29T21:58:34.676Z,99967.09
2022-11-29T22:01:16.705Z,99966.66
2022-11-29T22:03:44.438Z,99969.44
2022-11-29T22:06:13.459Z,99960.63
2022-11-29T22:08:41.398Z,99957.81
2022-11-29T22:11:11.879Z,99961.22
2022-11-29T22:13:40.339Z,99952.41
2022-11-29T22:16:09.595Z,99960.19
2022-11-29T22:18:37.852Z,99965.38
2022-11-29T22:21:06.790Z,99968.44
2022-11-29T22:23:34.245Z,99965.63
2022-11-29T22:26:05.397Z,99970.03
2022-11-29T22:28:32.534Z,99964.25
2022-11-29T22:31:05.385Z,99959.31
2022-11-29T22:33:33.096Z,99953.09
2022-11-29T22:36:05.092Z,99958.03
2022-11-29T22:38:32.093Z,99955.44
2022-11-29T22:41:05.085Z,99959.63
2022-11-29T22:43:33.588Z,99957.81
2022-11-29T22:46:08.138Z,99957.16
2022-11-29T22:48:39.096Z,99956.94
2022-11-29T22:51:12.077Z,99955.78
2022-11-29T22:53:40.951Z,99950.59
2022-11-29T22:56:10.539Z,99956.94
2022-11-29T22:58:37.429Z,99962.13
2022-11-29T23:01:19.098Z,99962.56
2022-11-29T23:03:48.599Z,99958.38
2022-11-29T23:06:18.545Z,99960.97
2022-11-29T23:08:47.481Z,99965.03
2022-11-29T23:11:17.099Z,99966.16
2022-11-29T23:13:44.739Z,99971.34
2022-11-29T23:16:14.685Z,99965.38
2022-11-29T23:18:41.770Z,99966.84
2022-11-29T23:21:11.585Z,99968.75
2022-11-29T23:23:38.613Z,99974.97
2022-11-29T23:26:07.154Z,99962.78
2022-11-29T23:28:35.855Z,99960.53
2022-11-29T23:31:02.757Z,99967.88
2022-11-29T23:33:29.554Z,99972.28
2022-11-29T23:36:02.094Z,99968.22
2022-11-29T23:38:28.910Z,99971.03
2022-11-29T23:40:55.826Z,99965.63
2022-11-29T23:43:22.824Z,99962.69
2022-11-29T23:45:50.466Z,99961.91
2022-11-29T23:48:17.353Z,99956.91
2022-11-29T23:50:44.112Z,99959.41
2022-11-29T23:53:15.568Z,99960.97
2022-11-29T23:55:42.680Z,99956.81
2022-11-29T23:58:10.740Z,99949.13
